Terminal Aerodrome Forecast
Issued by NWS

Home | Current Version | Previous Version | Text Only | Print | Product List | Glossary On
Versions: 1 2 3 4 5 6 7 8 9 10 11 12 13 14 15 16 17 18 19
000
FTUS43 KPAH 291600 AAA
TAFCGI
TAF AMD
KCGI 291612Z 2916/3012 32016G25KT P6SM BKN035
     FM291800 31015G24KT P6SM OVC025
     FM300000 34009KT P6SM BKN030
     FM300600 33006KT P6SM SCT035=

USA.gov is the U.S. government's official web portal to all federal, state and local government web resources and services.